Time;durP1;ratioP1;P1;durP2;ratioP2;P2;SDS_P1;SDS_P2;PMS_P1;PMS_P2;Temp;Humidity;BMP_temperature;BMP_pressure;BME280_temperature;BME280_humidity;BME280_pressure;Samples;Min_cycle;Max_cycle;Signal;HPM_P1;HPM_P2
2022/10/12 00:02:18;;;;;;;15.57;13.37;;;;;;;17.96;64.07;99413.59;6925076;28;20634;-80
2022/10/12 00:05:39;;;;;;;19.03;13.90;;;;;;;18.04;63.75;99418.69;6925498;28;20321;-80
2022/10/12 00:09:01;;;;;;;15.80;12.73;;;;;;;18.00;63.56;99422.13;6924154;28;20850;-80
2022/10/12 00:12:24;;;;;;;19.70;14.13;;;;;;;18.17;63.13;99401.25;6926407;28;20213;-80
2022/10/12 00:15:45;;;;;;;15.30;13.70;;;;;;;18.20;63.01;99411.66;6926404;28;20268;-80
2022/10/12 00:19:07;;;;;;;18.87;12.70;;;;;;;18.33;62.57;99411.47;6926058;28;20261;-80
2022/10/12 00:22:28;;;;;;;18.53;13.37;;;;;;;18.32;62.32;99410.63;6926419;28;20202;-79
2022/10/12 00:25:50;;;;;;;17.00;12.30;;;;;;;18.13;62.34;99421.88;6926988;28;20391;-79
2022/10/12 00:29:13;;;;;;;15.07;13.47;;;;;;;17.87;63.10;99419.66;6926708;28;20222;-79
2022/10/12 00:32:34;;;;;;;14.47;12.70;;;;;;;17.74;63.14;99396.16;6939762;28;20226;-80
2022/10/12 00:35:56;;;;;;;20.17;13.50;;;;;;;17.68;63.14;99415.38;6926509;28;20212;-80
2022/10/12 00:39:17;;;;;;;17.70;13.87;;;;;;;17.45;63.94;99420.78;6921418;28;20249;-80
2022/10/12 00:42:39;;;;;;;19.63;13.90;;;;;;;17.61;63.80;99415.47;6922655;28;20544;-80
2022/10/12 00:46:04;;;;;;;16.20;13.07;;;;;;;17.73;63.25;99377.28;6922574;28;20245;-80
2022/10/12 00:49:26;;;;;;;16.77;12.23;;;;;;;17.67;62.76;99381.81;6922276;28;20277;-80
2022/10/12 00:52:54;;;;;;;20.33;13.53;;;;;;;17.74;62.85;99395.34;6922995;28;20271;-80
2022/10/12 00:56:18;;;;;;;17.93;14.80;;;;;;;17.74;62.35;99407.06;6922694;28;20277;-80
2022/10/12 00:59:44;;;;;;;21.20;16.97;;;;;;;17.08;64.13;99391.97;6923301;28;20363;-80
2022/10/12 01:03:08;;;;;;;21.60;17.47;;;;;;;17.30;63.76;99414.91;6923467;28;20213;-80
2022/10/12 01:06:30;;;;;;;20.77;16.37;;;;;;;17.59;63.72;99405.84;6923285;28;20238;-80
2022/10/12 01:09:52;;;;;;;20.30;14.50;;;;;;;17.63;63.15;99396.16;6921514;28;20239;-80
2022/10/12 01:13:14;;;;;;;19.50;13.63;;;;;;;17.38;63.21;99392.78;6924230;28;20284;-80
2022/10/12 01:16:44;;;;;;;24.47;15.17;;;;;;;17.25;63.39;99390.22;6924101;28;20352;-80
2022/10/12 01:20:28;;;;;;;20.47;15.10;;;;;;;17.12;64.51;99394.00;6924522;28;20249;-79
2022/10/12 01:24:23;;;;;;;19.03;14.77;;;;;;;17.36;64.03;99406.63;6925375;28;20266;-79
2022/10/12 01:27:46;;;;;;;19.20;15.57;;;;;;;17.30;64.23;99412.16;6942778;28;20232;-80
2022/10/12 01:31:12;;;;;;;21.73;14.93;;;;;;;17.30;64.10;99412.16;6937130;28;20284;-80
2022/10/12 01:34:40;;;;;;;18.47;14.93;;;;;;;17.51;63.44;99400.75;6920811;28;20265;-80
2022/10/12 01:38:06;;;;;;;21.13;14.17;;;;;;;17.44;62.78;99394.56;6920410;28;20206;-79
2022/10/12 01:41:31;;;;;;;16.97;13.37;;;;;;;17.40;62.68;99394.19;6920776;28;20229;-80
2022/10/12 01:45:02;;;;;;;17.60;13.87;;;;;;;17.32;63.07;99389.06;6920623;28;20292;-80
2022/10/12 01:48:24;;;;;;;20.20;14.37;;;;;;;17.20;62.87;99396.38;6919831;28;20595;-79
2022/10/12 01:51:56;;;;;;;19.53;13.50;;;;;;;17.19;63.32;99388.44;6923863;28;20438;-80
2022/10/12 01:55:25;;;;;;;18.40;13.70;;;;;;;16.95;63.15;99371.22;6920492;28;20283;-80
2022/10/12 01:58:55;;;;;;;17.90;13.33;;;;;;;17.16;62.51;99378.03;6919148;28;20387;-79
2022/10/12 02:02:22;;;;;;;20.03;13.77;;;;;;;16.88;63.10;99373.16;6920338;28;20619;-80
2022/10/12 02:05:48;;;;;;;19.00;13.47;;;;;;;16.89;63.30;99385.75;6920201;28;20311;-80
2022/10/12 02:09:13;;;;;;;18.40;12.37;;;;;;;17.07;63.00;99372.06;6918228;28;20228;-79
2022/10/12 02:12:36;;;;;;;16.70;12.90;;;;;;;16.77;63.23;99384.03;6920127;28;20398;-80
2022/10/12 02:15:58;;;;;;;20.57;14.43;;;;;;;16.88;63.23;99388.69;6938670;28;20241;-80
2022/10/12 02:19:23;;;;;;;17.83;13.20;;;;;;;16.62;63.42;99389.03;6974271;28;20995;-80
2022/10/12 02:22:49;;;;;;;14.63;12.77;;;;;;;16.51;63.54;99387.13;6977794;28;20276;-80
2022/10/12 02:26:11;;;;;;;16.87;13.40;;;;;;;16.78;62.58;99361.19;6985779;28;20251;-79
2022/10/12 02:29:37;;;;;;;18.40;13.53;;;;;;;16.43;62.77;99374.66;6977987;28;20273;-79
2022/10/12 02:33:03;;;;;;;19.40;14.60;;;;;;;16.22;64.58;99385.94;6977984;28;20296;-80
2022/10/12 02:36:30;;;;;;;19.23;14.03;;;;;;;16.41;63.77;99375.94;6977861;28;20191;-79
2022/10/12 02:39:54;;;;;;;19.57;12.37;;;;;;;16.79;63.01;99366.41;6977147;28;20641;-79
2022/10/12 02:43:19;;;;;;;15.87;12.93;;;;;;;16.41;63.03;99371.34;6978162;28;20615;-80
2022/10/12 02:46:41;;;;;;;19.57;14.10;;;;;;;16.33;63.52;99390.63;6977477;28;20286;-80
2022/10/12 02:50:05;;;;;;;20.33;14.37;;;;;;;16.10;63.61;99381.50;6976929;28;20289;-80
2022/10/12 02:53:27;;;;;;;19.57;15.43;;;;;;;15.46;67.00;99390.06;6975361;28;20298;-79
2022/10/12 02:56:50;;;;;;;16.53;13.90;;;;;;;16.21;65.06;99381.56;6975468;28;20294;-80
2022/10/12 03:00:13;;;;;;;18.60;14.00;;;;;;;16.09;64.33;99360.78;6974780;28;20311;-80
2022/10/12 03:03:34;;;;;;;23.27;14.43;;;;;;;16.33;64.46;99390.63;6980397;28;20245;-80
2022/10/12 03:06:56;;;;;;;19.80;13.10;;;;;;;16.85;62.49;99384.53;6980185;28;20223;-80
2022/10/12 03:10:17;;;;;;;17.33;12.73;;;;;;;16.51;62.80;99385.22;6983578;28;20365;-79
2022/10/12 03:13:40;;;;;;;17.70;12.43;;;;;;;16.58;62.68;99375.06;6982621;28;20233;-80
2022/10/12 03:17:02;;;;;;;21.10;13.20;;;;;;;16.12;63.14;99387.56;6983701;28;20285;-80
2022/10/12 03:20:23;;;;;;;19.53;13.50;;;;;;;16.30;63.44;99388.38;6981339;28;20716;-80
2022/10/12 03:23:46;;;;;;;22.27;13.90;;;;;;;16.06;64.10;99402.91;6994612;28;20207;-80
2022/10/12 03:27:18;;;;;;;20.97;14.17;;;;;;;16.34;63.84;99402.38;6994210;28;20232;-80
2022/10/12 03:30:41;;;;;;;21.57;14.10;;;;;;;16.14;63.82;99382.69;6957536;28;20241;-80
2022/10/12 03:34:03;;;;;;;23.47;14.57;;;;;;;15.97;65.12;99392.50;6995987;28;20218;-80
2022/10/12 03:37:24;;;;;;;18.87;14.43;;;;;;;16.27;64.93;99396.19;6990271;28;20207;-80
2022/10/12 03:40:51;;;;;;;18.43;13.37;;;;;;;16.64;63.94;99406.00;6992774;28;20228;-80
2022/10/12 03:44:13;;;;;;;20.03;13.50;;;;;;;16.52;63.44;99367.81;6987297;28;20211;-80
2022/10/12 03:47:36;;;;;;;19.60;13.10;;;;;;;16.85;63.00;99410.94;6994232;28;20294;-80
2022/10/12 03:50:58;;;;;;;18.70;12.87;;;;;;;16.77;62.04;99414.00;6983488;28;20449;-79
2022/10/12 03:54:20;;;;;;;22.27;13.27;;;;;;;16.06;64.28;99404.78;6983761;28;20294;-80
2022/10/12 03:57:41;;;;;;;17.40;13.07;;;;;;;15.88;63.71;99315.84;6982525;28;20703;-80
2022/10/12 04:01:03;;;;;;;15.77;12.50;;;;;;;16.46;63.57;99385.06;6982263;28;20317;-80
2022/10/12 04:04:26;;;;;;;16.07;11.70;;;;;;;16.68;62.97;99394.41;6996239;28;20210;-80
2022/10/12 04:07:47;;;;;;;14.13;11.80;;;;;;;16.65;62.37;99402.22;6996840;28;20658;-80
2022/10/12 04:11:09;;;;;;;19.73;12.77;;;;;;;16.13;63.11;99360.13;6954007;28;20231;-80
2022/10/12 04:14:30;;;;;;;15.53;12.90;;;;;;;16.18;63.51;99398.38;6949105;28;20204;-80
2022/10/12 04:17:52;;;;;;;16.50;11.93;;;;;;;16.31;63.11;99364.72;6948508;28;20358;-80
2022/10/12 04:21:16;;;;;;;21.70;12.63;;;;;;;15.96;63.38;99382.69;6948976;28;20300;-79
2022/10/12 04:24:38;;;;;;;16.87;13.23;;;;;;;16.33;63.20;99406.16;6949613;28;20289;-81
2022/10/12 04:28:00;;;;;;;20.53;14.07;;;;;;;15.76;64.41;99391.03;6951563;28;20321;-80
2022/10/12 04:31:22;;;;;;;19.43;14.53;;;;;;;15.87;64.93;99384.06;6948585;28;20295;-80
2022/10/12 04:34:43;;;;;;;19.17;13.90;;;;;;;16.10;64.26;99398.66;6950171;28;20205;-80
2022/10/12 04:38:06;;;;;;;18.50;13.73;;;;;;;16.07;64.60;99380.06;6963336;28;20665;-79
2022/10/12 04:41:28;;;;;;;18.67;13.60;;;;;;;16.47;63.91;99403.09;6964818;28;20235;-80
2022/10/12 04:44:49;;;;;;;21.40;15.77;;;;;;;16.29;63.51;99378.53;6953779;28;20220;-79
2022/10/12 04:48:11;;;;;;;20.03;14.67;;;;;;;16.55;63.08;99407.34;6955223;28;20316;-79
2022/10/12 04:51:32;;;;;;;18.33;13.73;;;;;;;16.61;62.84;99403.72;6959227;28;20255;-79
2022/10/12 04:54:55;;;;;;;20.70;13.83;;;;;;;16.37;62.62;99408.19;6966472;28;21006;-80
2022/10/12 04:58:17;;;;;;;23.30;13.50;;;;;;;16.09;62.96;99409.75;6965204;28;20265;-81
2022/10/12 05:01:38;;;;;;;18.33;14.30;;;;;;;16.02;63.23;99417.16;6959283;28;20279;-79
2022/10/12 05:05:00;;;;;;;20.50;14.90;;;;;;;15.61;64.66;99415.03;6958508;28;20209;-80
2022/10/12 05:08:28;;;;;;;19.63;13.93;;;;;;;15.96;64.50;99413.47;6965773;28;20433;-79
2022/10/12 05:11:54;;;;;;;16.43;13.20;;;;;;;16.12;64.11;99412.88;6957443;28;20298;-79
2022/10/12 05:15:16;;;;;;;20.53;13.50;;;;;;;16.41;63.20;99416.75;6954208;28;20299;-80
2022/10/12 05:18:38;;;;;;;19.17;13.53;;;;;;;16.50;62.66;99401.75;6951909;28;20712;-80
2022/10/12 05:21:59;;;;;;;15.13;12.90;;;;;;;15.59;63.32;99338.34;6955679;28;20275;-79
2022/10/12 05:25:21;;;;;;;20.03;12.70;;;;;;;16.06;63.59;99402.91;6952034;28;20212;-80
2022/10/12 05:28:43;;;;;;;18.43;12.93;;;;;;;16.05;63.68;99422.16;6948637;28;20328;-80
2022/10/12 05:32:05;;;;;;;18.93;13.17;;;;;;;16.06;63.49;99416.50;6946056;28;20293;-80
2022/10/12 05:35:27;;;;;;;20.77;14.23;;;;;;;16.33;62.96;99417.84;6950624;28;20686;-80
2022/10/12 05:38:48;;;;;;;25.30;14.87;;;;;;;16.42;62.89;99423.84;6949082;28;20310;-79
2022/10/12 05:42:10;;;;;;;18.07;12.63;;;;;;;16.46;62.80;99423.16;6950146;28;20583;-79
2022/10/12 05:45:33;;;;;;;18.13;11.73;;;;;;;16.45;61.98;99398.91;6950068;28;20514;-79
2022/10/12 05:48:54;;;;;;;17.27;12.67;;;;;;;16.33;63.00;99423.28;6949139;28;20322;-80
2022/10/12 05:52:16;;;;;;;15.23;12.80;;;;;;;16.55;62.46;99420.97;6949752;28;20275;-79
2022/10/12 05:55:37;;;;;;;18.63;13.33;;;;;;;16.33;61.91;99433.38;6949752;28;20211;-79
2022/10/12 05:58:59;;;;;;;18.00;13.13;;;;;;;16.24;62.30;99399.34;6951961;28;20285;-79
2022/10/12 06:02:22;;;;;;;21.30;13.70;;;;;;;16.47;62.48;99430.31;6949684;28;20363;-80
2022/10/12 06:05:44;;;;;;;16.93;13.67;;;;;;;16.12;63.42;99421.03;6954337;28;20204;-79
2022/10/12 06:09:05;;;;;;;20.03;13.40;;;;;;;16.30;63.98;99437.38;6974201;28;20341;-79
2022/10/12 06:12:27;;;;;;;23.43;15.53;;;;;;;16.13;63.69;99409.09;6982409;28;20677;-79
2022/10/12 06:15:49;;;;;;;25.60;17.33;;;;;;;16.32;64.38;99439.84;6981883;28;20208;-79
2022/10/12 06:19:12;;;;;;;25.93;17.10;;;;;;;16.32;64.20;99399.03;6981390;28;20230;-79
2022/10/12 06:22:34;;;;;;;20.23;16.57;;;;;;;16.35;63.92;99371.38;6979531;28;20221;-80
2022/10/12 06:25:55;;;;;;;23.40;16.50;;;;;;;16.91;63.43;99429.09;6978384;28;20222;-80
2022/10/12 06:29:17;;;;;;;19.87;14.83;;;;;;;16.58;62.57;99319.81;6979577;28;20642;-80
2022/10/12 06:32:38;;;;;;;16.40;14.17;;;;;;;17.21;62.52;99425.31;6978588;28;20211;-80
2022/10/12 06:36:01;;;;;;;16.00;14.27;;;;;;;17.10;62.50;99417.09;6953878;28;20301;-80
2022/10/12 06:39:24;;;;;;;21.07;15.17;;;;;;;17.04;62.99;99428.94;6955489;28;20251;-79
2022/10/12 06:42:46;;;;;;;20.60;15.53;;;;;;;17.30;62.27;99421.19;6957430;28;20207;-80
2022/10/12 06:46:07;;;;;;;21.17;15.77;;;;;;;16.88;62.85;99421.38;6959938;28;20209;-79
2022/10/12 06:49:29;;;;;;;18.13;14.80;;;;;;;16.87;62.40;99333.38;6959970;28;20309;-79
2022/10/12 06:52:52;;;;;;;19.60;15.63;;;;;;;17.47;62.16;99435.84;6958759;28;20212;-79
2022/10/12 06:56:13;;;;;;;22.83;15.37;;;;;;;17.48;62.54;99417.56;6955188;28;20209;-79
2022/10/12 06:59:35;;;;;;;18.13;15.93;;;;;;;17.52;63.02;99426.97;6941124;28;20689;-79
2022/10/12 07:02:57;;;;;;;22.93;14.20;;;;;;;17.66;62.11;99439.31;6958495;28;20212;-79
2022/10/12 07:06:19;;;;;;;19.27;15.17;;;;;;;17.54;62.47;99395.66;6958335;28;20232;-79
2022/10/12 07:09:42;;;;;;;18.30;14.80;;;;;;;17.58;62.64;99428.75;6964379;28;20225;-78
2022/10/12 07:13:04;;;;;;;24.30;16.63;;;;;;;17.57;62.61;99427.91;6961400;28;20290;-79
2022/10/12 07:16:25;;;;;;;24.10;16.93;;;;;;;17.83;62.22;99423.91;6958893;28;20216;-79
2022/10/12 07:19:47;;;;;;;21.80;16.63;;;;;;;18.02;61.90;99431.75;6957328;28;20733;-79
2022/10/12 07:23:08;;;;;;;18.20;15.63;;;;;;;18.22;62.05;99434.13;6960029;28;20219;-79
2022/10/12 07:26:47;;;;;;;21.63;17.90;;;;;;;18.02;62.27;99428.16;6960111;28;20233;-79
2022/10/12 07:30:10;;;;;;;20.87;15.87;;;;;;;18.41;61.80;99432.94;6961426;28;20295;-79
2022/10/12 07:33:33;;;;;;;19.20;16.37;;;;;;;18.64;61.46;99432.88;6963764;28;20270;-79
2022/10/12 07:36:55;;;;;;;17.90;15.93;;;;;;;18.64;61.07;99411.84;6953896;28;20304;-79
2022/10/12 07:40:17;;;;;;;18.40;15.23;;;;;;;19.07;59.68;99422.25;6952883;28;20322;-78
2022/10/12 07:43:40;;;;;;;18.57;15.90;;;;;;;18.89;59.10;99436.97;6952992;28;20302;-78
2022/10/12 07:47:01;;;;;;;17.17;15.17;;;;;;;19.09;59.19;99418.22;6954946;28;20250;-78
2022/10/12 07:50:26;;;;;;;17.50;14.63;;;;;;;19.17;58.55;99408.78;6957320;28;20565;-78
2022/10/12 07:53:49;;;;;;;18.13;14.30;;;;;;;19.59;58.37;99421.91;6953200;28;20339;-78
2022/10/12 07:57:10;;;;;;;16.50;14.80;;;;;;;19.68;58.23;99431.34;6951299;28;20199;-78
2022/10/12 08:00:33;;;;;;;18.33;14.17;;;;;;;19.57;58.38;99418.56;6955329;28;20238;-78
2022/10/12 08:03:55;;;;;;;18.00;14.90;;;;;;;19.86;57.88;99427.53;6956859;28;20194;-79
2022/10/12 08:07:17;;;;;;;20.73;15.27;;;;;;;20.18;56.58;99429.44;6952768;28;20314;-78
2022/10/12 08:10:38;;;;;;;19.20;14.33;;;;;;;19.92;57.17;99423.81;6954156;28;20227;-78
2022/10/12 08:14:00;;;;;;;16.77;14.97;;;;;;;20.20;56.52;99418.22;6949949;28;20250;-78
2022/10/12 08:17:23;;;;;;;22.07;16.23;;;;;;;20.57;55.90;99428.34;6954526;28;20242;-78
2022/10/12 08:20:45;;;;;;;17.80;14.93;;;;;;;20.46;56.44;99421.06;6956239;28;20305;-78
2022/10/12 08:24:07;;;;;;;21.53;15.77;;;;;;;20.69;56.06;99430.97;6965903;28;20195;-78
2022/10/12 08:27:30;;;;;;;21.57;15.40;;;;;;;20.60;55.85;99432.47;6967461;28;20257;-79
2022/10/12 08:30:52;;;;;;;19.63;15.50;;;;;;;20.58;56.45;99432.72;6952641;28;20251;-79
2022/10/12 08:34:15;;;;;;;19.07;15.37;;;;;;;20.41;55.96;99425.66;6952528;28;20288;-78
2022/10/12 08:37:36;;;;;;;19.30;15.60;;;;;;;20.97;55.13;99436.25;6952124;28;20893;-79
2022/10/12 08:41:03;;;;;;;19.77;15.63;;;;;;;21.20;54.58;99434.06;6952415;28;20261;-78
2022/10/12 08:44:40;;;;;;;19.40;16.73;;;;;;;20.55;56.02;99422.28;6952738;28;20274;-78
2022/10/12 08:48:07;;;;;;;19.93;16.97;;;;;;;20.96;54.92;99407.19;6952103;28;20226;-78
2022/10/12 08:51:32;;;;;;;19.83;15.17;;;;;;;21.08;54.54;99418.84;6951991;28;20214;-78
2022/10/12 08:54:54;;;;;;;20.07;15.70;;;;;;;21.10;55.52;99433.13;6953445;28;20688;-78
2022/10/12 08:58:19;;;;;;;19.73;15.30;;;;;;;21.32;54.29;99418.28;6949979;28;20207;-78
2022/10/12 09:01:53;;;;;;;20.63;15.73;;;;;;;21.29;54.01;99422.38;6952279;28;20587;-78
2022/10/12 09:05:18;;;;;;;18.60;14.70;;;;;;;21.38;54.05;99395.28;6952491;28;20280;-78
2022/10/12 09:08:51;;;;;;;21.97;15.23;;;;;;;21.63;53.25;99414.72;6949531;28;20318;-78
2022/10/12 09:12:21;;;;;;;18.83;14.37;;;;;;;21.68;53.79;99406.56;6951115;28;20223;-78
2022/10/12 09:15:47;;;;;;;16.33;14.37;;;;;;;21.88;52.56;99409.47;6952665;28;20687;-78
2022/10/12 09:19:14;;;;;;;16.93;13.57;;;;;;;21.02;53.32;99412.47;6950234;28;20305;-78
2022/10/12 09:22:36;;;;;;;19.57;14.23;;;;;;;21.30;53.20;99410.31;6951223;28;20256;-79
2022/10/12 09:26:02;;;;;;;21.70;15.17;;;;;;;21.61;51.38;99392.22;6948028;28;20212;-78
2022/10/12 09:30:08;;;;;;;21.30;13.57;;;;;;;21.08;54.06;99420.50;6947897;28;20724;-82
2022/10/12 09:33:33;;;;;;;17.77;10.87;;;;;;;21.85;51.22;99413.59;6941661;28;20711;-77
2022/10/12 09:36:55;;;;;;;15.47;11.63;;;;;;;21.80;50.00;99410.81;6948676;28;20309;-79
2022/10/12 09:40:20;;;;;;;13.47;10.87;;;;;;;21.89;50.18;99422.94;6948380;28;20256;-78
2022/10/12 09:43:43;;;;;;;17.70;12.13;;;;;;;21.70;50.81;99429.09;6949161;28;20227;-78
2022/10/12 09:47:06;;;;;;;15.10;10.37;;;;;;;21.66;50.26;99428.75;6948493;28;20738;-78
2022/10/12 09:50:40;;;;;;;15.67;10.50;;;;;;;21.79;50.20;99433.88;6949032;28;20686;-79
2022/10/12 09:54:03;;;;;;;13.60;10.83;;;;;;;21.25;50.14;99413.00;6950189;28;20203;-78
2022/10/12 09:57:26;;;;;;;15.43;10.27;;;;;;;21.71;50.46;99426.09;6968866;28;20257;-79
2022/10/12 10:01:21;;;;;;;15.80;10.43;;;;;;;21.52;50.12;99422.06;6981059;28;20256;-78
2022/10/12 10:04:44;;;;;;;14.93;10.07;;;;;;;21.62;49.86;99415.81;6933761;28;20649;-79
2022/10/12 10:08:17;;;;;;;14.13;9.93;;;;;;;21.73;50.23;99414.84;6945688;28;20223;-78
2022/10/12 10:11:39;;;;;;;10.63;9.10;;;;;;;22.00;49.39;99432.06;6951712;28;20202;-78
2022/10/12 10:15:14;;;;;;;14.17;11.10;;;;;;;21.85;49.65;99408.09;6951991;28;20686;-82
2022/10/12 10:18:39;;;;;;;12.77;9.70;;;;;;;21.48;50.71;99434.63;6950659;28;20218;-80
2022/10/12 10:22:05;;;;;;;16.73;11.37;;;;;;;21.22;51.35;99409.13;6960320;28;20259;-79
2022/10/12 10:25:27;;;;;;;15.40;11.13;;;;;;;21.03;51.06;99422.38;6955256;28;20652;-81
2022/10/12 10:28:50;;;;;;;13.13;9.37;;;;;;;21.12;51.70;99429.06;6956912;28;20285;-81
2022/10/12 10:32:23;;;;;;;11.67;9.70;;;;;;;20.85;52.74;99428.16;6956881;28;20234;-79
2022/10/12 10:35:59;;;;;;;13.50;9.93;;;;;;;20.82;51.68;99433.31;6953828;28;20290;-78
2022/10/12 10:39:23;;;;;;;14.13;10.23;;;;;;;21.50;49.76;99429.72;6925114;28;20235;-79
2022/10/12 10:42:49;;;;;;;18.57;11.40;;;;;;;21.57;50.11;99427.59;6930418;28;20237;-78
2022/10/12 10:46:11;;;;;;;11.53;9.40;;;;;;;21.96;49.09;99433.72;6927617;28;20897;-78
2022/10/12 10:49:38;;;;;;;15.77;10.43;;;;;;;21.13;49.86;99414.25;6926269;28;20266;-79
2022/10/12 10:53:03;;;;;;;13.80;9.53;;;;;;;20.95;50.86;99430.22;6931203;28;20265;-79
2022/10/12 10:56:26;;;;;;;13.47;9.20;;;;;;;21.51;50.69;99425.88;6931407;28;20342;-78
2022/10/12 10:59:51;;;;;;;12.30;9.37;;;;;;;21.86;49.39;99423.47;6927018;28;20634;-80
2022/10/12 11:03:17;;;;;;;12.63;9.43;;;;;;;21.99;49.29;99400.22;6954812;28;20222;-80
2022/10/12 11:06:43;;;;;;;13.50;9.93;;;;;;;21.87;48.42;99410.56;6955723;28;20234;-79
2022/10/12 11:10:15;;;;;;;12.47;10.23;;;;;;;22.09;48.61;99428.59;6955453;28;20288;-79
2022/10/12 11:13:40;;;;;;;11.50;9.83;;;;;;;22.29;47.44;99406.75;6955815;28;20230;-79
2022/10/12 11:17:04;;;;;;;12.80;9.90;;;;;;;22.48;47.84;99413.47;6955583;28;20213;-79
2022/10/12 11:20:32;;;;;;;16.87;11.43;;;;;;;22.07;48.26;99408.78;6955454;28;20326;-79
2022/10/12 11:23:55;;;;;;;15.73;11.80;;;;;;;21.99;48.60;99400.22;6955407;28;20211;-78
2022/10/12 11:27:23;;;;;;;14.77;11.37;;;;;;;22.30;48.99;99410.34;6962599;28;20740;-79
2022/10/12 11:30:49;;;;;;;14.97;11.23;;;;;;;22.70;47.64;99405.88;6962148;28;20292;-79
2022/10/12 11:34:13;;;;;;;13.73;11.33;;;;;;;22.38;47.99;99398.81;6977636;28;20207;-79
2022/10/12 11:37:38;;;;;;;14.07;11.40;;;;;;;22.93;46.97;99405.41;6956784;28;20277;-78
2022/10/12 11:41:04;;;;;;;17.90;11.23;;;;;;;22.74;46.63;99392.44;6956413;28;20223;-78
2022/10/12 11:44:32;;;;;;;13.13;10.70;;;;;;;22.49;47.31;99378.56;6962222;28;20217;-79
2022/10/12 11:47:57;;;;;;;15.50;11.17;;;;;;;22.71;46.87;99395.72;6968889;28;20292;-79
2022/10/12 11:51:19;;;;;;;14.80;11.40;;;;;;;22.78;46.59;99383.34;6959241;28;20365;-79
2022/10/12 11:54:44;;;;;;;15.23;11.27;;;;;;;22.63;47.09;99369.56;6953875;28;20245;-79
2022/10/12 11:58:09;;;;;;;15.03;11.53;;;;;;;22.89;46.58;99385.03;6953533;28;20270;-79
2022/10/12 12:01:53;;;;;;;13.33;10.87;;;;;;;23.00;46.49;99388.66;6975563;28;20239;-78
2022/10/12 12:05:15;;;;;;;14.27;10.87;;;;;;;23.07;46.58;99369.97;6972902;28;20687;-79
2022/10/12 12:08:58;;;;;;;16.60;11.63;;;;;;;22.34;46.78;99381.19;6976969;28;20242;-78
2022/10/12 12:12:22;;;;;;;16.73;11.50;;;;;;;22.24;46.78;99357.25;6978953;28;20252;-79
2022/10/12 12:16:33;;;;;;;13.47;11.03;;;;;;;22.63;47.38;99382.47;6978609;28;20214;-78
2022/10/12 12:19:57;;;;;;;14.43;12.03;;;;;;;22.87;46.20;99343.25;6966934;28;20310;-81
2022/10/12 12:23:20;;;;;;;18.50;14.50;;;;;;;22.83;46.70;99333.88;6951019;28;20293;-79
2022/10/12 12:26:47;;;;;;;12.77;10.97;;;;;;;22.87;45.93;99323.16;6950690;28;20207;-78
2022/10/12 12:30:28;;;;;;;16.77;11.97;;;;;;;22.62;47.11;99345.94;6949746;28;20347;-79
2022/10/12 12:33:59;;;;;;;12.43;9.77;;;;;;;22.49;46.06;99260.41;6953381;28;20244;-79
2022/10/12 12:37:22;;;;;;;12.63;10.53;;;;;;;23.01;46.18;99349.06;6953211;28;20195;-79
2022/10/12 12:41:08;;;;;;;15.73;11.13;;;;;;;22.83;46.53;99358.63;6953605;28;20730;-78
2022/10/12 12:44:40;;;;;;;15.57;11.07;;;;;;;23.06;46.06;99352.63;6952766;28;20853;-78
2022/10/12 12:48:01;;;;;;;13.70;10.60;;;;;;;23.00;46.00;99333.63;6950890;28;20210;-78
2022/10/12 12:51:25;;;;;;;15.17;10.97;;;;;;;22.85;46.46;99339.97;6950799;28;20220;-78
2022/10/12 12:55:11;;;;;;;14.20;9.63;;;;;;;23.31;45.23;99336.19;6951814;28;20248;-78
2022/10/12 12:58:49;;;;;;;16.73;9.80;;;;;;;21.83;47.79;99338.88;6948434;28;20260;-78
2022/10/12 13:02:37;;;;;;;15.47;10.47;;;;;;;22.56;46.15;99341.50;6949250;28;20370;-78
2022/10/12 13:06:28;;;;;;;13.70;9.40;;;;;;;23.17;45.90;99337.84;6944141;28;20293;-78
2022/10/12 13:10:06;;;;;;;14.00;9.53;;;;;;;23.37;45.47;99321.31;6947417;28;20330;-78
2022/10/12 13:13:36;;;;;;;11.50;8.60;;;;;;;23.57;45.17;99335.09;6934560;28;20306;-78
2022/10/12 13:17:14;;;;;;;12.13;9.17;;;;;;;23.66;44.66;99338.13;6922648;28;20342;-80
2022/10/12 13:20:38;;;;;;;14.60;8.87;;;;;;;23.47;44.53;99320.50;6921682;28;20229;-79
2022/10/12 13:24:04;;;;;;;14.27;8.93;;;;;;;23.35;44.90;99309.78;6942160;28;20297;-79
2022/10/12 13:27:32;;;;;;;12.60;8.53;;;;;;;23.47;44.76;99326.00;6949677;28;20349;-79
2022/10/12 13:30:55;;;;;;;11.43;8.57;;;;;;;23.56;44.57;99324.34;6949924;28;20703;-79
2022/10/12 13:34:19;;;;;;;14.47;8.50;;;;;;;23.56;44.16;99321.59;6950159;28;20699;-80
2022/10/12 13:37:41;;;;;;;13.17;8.53;;;;;;;23.69;44.43;99313.63;6950084;28;20291;-79
2022/10/12 13:41:07;;;;;;;12.13;9.03;;;;;;;23.86;43.99;99300.38;6950242;28;20306;-79
2022/10/12 13:44:33;;;;;;;13.77;9.13;;;;;;;23.89;43.47;99285.25;6949380;28;20290;-79
2022/10/12 13:48:03;;;;;;;12.77;8.23;;;;;;;24.05;43.02;99300.59;6949387;28;20254;-79
2022/10/12 13:51:27;;;;;;;21.10;9.37;;;;;;;22.98;45.38;99306.44;6949409;28;20250;-79
2022/10/12 13:54:49;;;;;;;16.10;8.53;;;;;;;22.64;46.85;99291.50;6948994;28;20269;-79
2022/10/12 13:58:21;;;;;;;13.67;8.33;;;;;;;23.02;45.55;99284.69;6949240;28;20207;-79
2022/10/12 14:01:53;;;;;;;11.80;8.13;;;;;;;23.06;45.70;99310.56;6948907;28;20216;-79
2022/10/12 14:05:17;;;;;;;11.40;8.23;;;;;;;23.13;45.86;99297.38;6948774;28;20248;-79
2022/10/12 14:08:39;;;;;;;13.93;8.80;;;;;;;22.93;46.17;99281.66;6947580;28;20722;-79
2022/10/12 14:12:01;;;;;;;14.93;8.20;;;;;;;23.01;45.44;99278.34;6949855;28;20283;-79
2022/10/12 14:15:25;;;;;;;17.83;8.17;;;;;;;23.24;44.76;99296.31;6949339;28;20623;-79
2022/10/12 14:18:49;;;;;;;11.50;7.97;;;;;;;23.31;44.14;99299.59;6950053;28;20283;-79
2022/10/12 14:22:11;;;;;;;10.13;8.47;;;;;;;22.93;44.64;99251.41;6949490;28;20220;-79
2022/10/12 14:25:33;;;;;;;14.53;8.43;;;;;;;23.13;44.89;99286.34;6944144;28;20677;-78
2022/10/12 14:28:56;;;;;;;13.23;8.43;;;;;;;22.87;46.34;99293.75;6950644;28;20651;-80
2022/10/12 14:32:39;;;;;;;11.20;7.77;;;;;;;22.91;46.00;99294.88;6950696;28;20199;-80
2022/10/12 14:36:23;;;;;;;14.80;8.30;;;;;;;22.92;45.89;99285.50;6950508;28;20277;-79
2022/10/12 14:39:46;;;;;;;12.37;8.00;;;;;;;23.06;45.42;99283.88;6950386;28;20232;-79
2022/10/12 14:43:22;;;;;;;11.83;8.00;;;;;;;22.60;45.57;99209.84;6952585;28;20749;-79
2022/10/12 14:46:50;;;;;;;11.03;7.43;;;;;;;23.02;46.17;99285.50;6952316;28;20211;-79
2022/10/12 14:50:17;;;;;;;14.10;8.07;;;;;;;23.28;45.58;99272.63;6951106;28;20274;-79
2022/10/12 14:53:40;;;;;;;12.03;7.83;;;;;;;23.28;45.60;99291.88;6950821;28;20291;-79
2022/10/12 14:57:10;;;;;;;9.33;7.30;;;;;;;23.24;45.02;99275.09;6952107;28;20590;-79
2022/10/12 15:00:33;;;;;;;39.53;9.60;;;;;;;23.22;45.36;99284.72;6957597;28;20322;-79
2022/10/12 15:03:55;;;;;;;14.17;7.40;;;;;;;23.30;45.34;99281.44;6950348;28;20568;-79
2022/10/12 15:07:18;;;;;;;11.87;7.40;;;;;;;23.30;45.35;99276.75;6968484;28;20227;-80
2022/10/12 15:10:40;;;;;;;14.13;7.73;;;;;;;23.23;45.11;99275.38;6955773;28;20227;-80
2022/10/12 15:14:02;;;;;;;14.23;8.00;;;;;;;23.27;45.01;99270.97;6963736;28;20252;-80
2022/10/12 15:17:24;;;;;;;15.30;7.80;;;;;;;23.19;44.95;99269.59;6975302;28;20184;-80
2022/10/12 15:20:47;;;;;;;12.47;7.97;;;;;;;23.15;44.98;99275.91;6968200;28;20262;-79
2022/10/12 15:24:12;;;;;;;13.07;8.60;;;;;;;22.94;45.18;99261.31;6968514;28;20301;-80
2022/10/12 15:27:35;;;;;;;12.47;8.23;;;;;;;23.02;44.97;99252.50;6961879;28;20207;-80
2022/10/12 15:30:57;;;;;;;10.50;8.40;;;;;;;23.00;44.98;99262.13;6953431;28;20243;-79
2022/10/12 15:34:18;;;;;;;14.70;8.40;;;;;;;22.38;45.80;99243.03;6953191;28;20282;-80
2022/10/12 15:37:40;;;;;;;10.10;8.30;;;;;;;22.43;46.40;99228.50;6951957;28;20203;-80
2022/10/12 15:41:02;;;;;;;11.10;8.17;;;;;;;22.47;46.51;99233.19;6953004;28;20236;-80
2022/10/12 15:44:26;;;;;;;12.20;7.90;;;;;;;22.78;46.40;99253.31;6952509;28;20294;-80
2022/10/12 15:47:48;;;;;;;12.60;7.67;;;;;;;22.67;47.52;99233.22;6952477;28;20715;-80